Time;durP1;ratioP1;P1;durP2;ratioP2;P2;SDS_P1;SDS_P2;PMS_P1;PMS_P2;Temp;Humidity;BMP_temperature;BMP_pressure;BME280_temperature;BME280_humidity;BME280_pressure;Samples;Min_cycle;Max_cycle;Signal;HPM_P1;HPM_P2
2021/06/24 00:02:22;;;;;;;6.47;4.13;;;;;;;17.75;73.15;100902.84;5105110;28;20271;-73
2021/06/24 00:04:48;;;;;;;5.27;4.30;;;;;;;17.73;73.63;100892.34;5105799;28;20210;-73
2021/06/24 00:07:14;;;;;;;6.47;4.43;;;;;;;17.72;73.41;100889.78;5105132;28;20625;-73
2021/06/24 00:09:41;;;;;;;5.03;4.10;;;;;;;17.74;73.39;100890.56;5105527;28;20202;-73
2021/06/24 00:12:10;;;;;;;5.43;4.90;;;;;;;17.78;72.88;100913.28;5105037;28;20603;-73
2021/06/24 00:14:36;;;;;;;4.73;4.33;;;;;;;17.77;72.76;100930.06;5104667;28;20263;-72
2021/06/24 00:17:03;;;;;;;4.70;4.30;;;;;;;17.80;72.83;100927.28;5105145;28;20230;-73
2021/06/24 00:19:30;;;;;;;4.97;4.33;;;;;;;17.86;72.77;100921.81;5104894;28;20291;-73
2021/06/24 00:21:56;;;;;;;4.47;4.07;;;;;;;17.88;73.03;100897.94;5104690;28;21035;-73
2021/06/24 00:24:22;;;;;;;4.87;4.20;;;;;;;17.86;72.87;100895.38;5104972;28;20210;-73
2021/06/24 00:26:49;;;;;;;5.93;4.57;;;;;;;17.87;73.07;100891.81;5104961;28;20226;-73
2021/06/24 00:29:16;;;;;;;5.90;4.87;;;;;;;17.83;73.45;100867.31;5104826;28;20641;-73
2021/06/24 00:31:43;;;;;;;4.90;4.30;;;;;;;17.80;73.09;100885.91;5104718;28;20209;-73
2021/06/24 00:34:09;;;;;;;5.33;4.57;;;;;;;17.77;73.14;100890.44;5104667;28;20255;-73
2021/06/24 00:36:36;;;;;;;4.93;4.53;;;;;;;17.78;73.38;100894.78;5104798;28;20258;-73
2021/06/24 00:39:02;;;;;;;4.97;4.37;;;;;;;17.77;73.14;100887.81;5104825;28;20203;-73
2021/06/24 00:41:29;;;;;;;5.10;4.70;;;;;;;17.69;72.80;100903.97;5104333;28;20261;-73
2021/06/24 00:43:55;;;;;;;4.57;4.17;;;;;;;17.60;72.85;100901.69;5104603;28;20211;-73
2021/06/24 00:46:23;;;;;;;6.03;4.47;;;;;;;17.58;72.65;100901.78;5104156;28;20665;-73
2021/06/24 00:48:56;;;;;;;5.77;4.00;;;;;;;17.55;73.08;100893.13;5104437;28;20260;-73
2021/06/24 00:51:23;;;;;;;4.70;4.30;;;;;;;17.50;73.29;100885.38;5104663;28;20230;-72
2021/06/24 00:53:49;;;;;;;5.97;5.37;;;;;;;17.43;73.63;100884.78;5104407;28;20205;-73
2021/06/24 00:56:26;;;;;;;4.93;4.30;;;;;;;17.44;73.59;100857.47;5104024;28;20299;-73
2021/06/24 00:58:53;;;;;;;4.50;4.27;;;;;;;17.47;73.40;100874.94;5104207;28;20757;-73
2021/06/24 01:01:19;;;;;;;4.70;3.80;;;;;;;17.47;73.17;100882.88;5103853;28;20230;-73
2021/06/24 01:03:47;;;;;;;7.57;4.50;;;;;;;17.52;73.30;100880.91;5103929;28;20259;-73
2021/06/24 01:06:13;;;;;;;4.90;4.10;;;;;;;17.56;73.04;100890.44;5103824;28;20226;-73
2021/06/24 01:08:40;;;;;;;6.27;5.20;;;;;;;17.51;73.16;100902.09;5103944;28;20290;-73
2021/06/24 01:11:06;;;;;;;5.33;4.60;;;;;;;17.49;72.98;100902.13;5104234;27;20206;-73
2021/06/24 01:13:33;;;;;;;5.50;5.00;;;;;;;17.44;72.96;100897.06;5103511;28;20618;-73
2021/06/24 01:15:59;;;;;;;5.80;4.17;;;;;;;17.30;73.36;100880.03;5103205;28;20226;-72
2021/06/24 01:18:26;;;;;;;4.90;4.20;;;;;;;17.22;73.51;100869.78;5103944;28;20321;-73
2021/06/24 01:20:54;;;;;;;5.67;4.50;;;;;;;17.19;74.08;100844.41;5103549;28;20228;-73
2021/06/24 01:23:20;;;;;;;6.83;5.00;;;;;;;17.19;74.20;100847.03;5103289;28;20215;-72
2021/06/24 01:25:48;;;;;;;5.67;4.27;;;;;;;17.15;74.71;100832.25;5103675;28;20351;-73
2021/06/24 01:28:14;;;;;;;4.43;4.03;;;;;;;17.20;74.76;100834.69;5103447;28;20280;-73
2021/06/24 01:30:42;;;;;;;5.67;4.30;;;;;;;17.20;74.60;100830.28;5103205;28;20206;-73
2021/06/24 01:33:11;;;;;;;5.53;4.50;;;;;;;17.26;74.56;100826.53;5102948;28;20214;-73
2021/06/24 01:35:38;;;;;;;5.33;4.13;;;;;;;17.23;74.91;100829.31;5103309;28;20237;-73
2021/06/24 01:38:06;;;;;;;5.67;4.33;;;;;;;17.26;74.85;100826.53;5103392;28;20676;-72
2021/06/24 01:40:33;;;;;;;5.20;4.70;;;;;;;17.26;74.54;100835.31;5102970;28;20229;-73
2021/06/24 01:43:01;;;;;;;7.43;5.27;;;;;;;17.27;74.37;100838.81;5102194;28;20253;-73
2021/06/24 01:45:27;;;;;;;5.67;4.40;;;;;;;17.27;74.13;100844.09;5102978;28;20621;-72
2021/06/24 01:47:54;;;;;;;6.73;5.07;;;;;;;17.24;74.18;100845.09;5103707;28;20206;-73
2021/06/24 01:50:21;;;;;;;5.70;5.07;;;;;;;17.22;74.04;100841.66;5102576;28;20552;-72
2021/06/24 01:52:49;;;;;;;5.10;4.60;;;;;;;17.23;74.29;100835.44;5102780;28;20278;-73
2021/06/24 01:55:17;;;;;;;5.70;5.10;;;;;;;17.15;74.44;100821.69;5102886;28;20270;-72
2021/06/24 01:57:44;;;;;;;7.57;5.90;;;;;;;17.17;74.54;100816.38;5103066;28;20205;-73
2021/06/24 02:00:14;;;;;;;6.37;4.90;;;;;;;17.12;74.24;100831.50;5102744;28;20237;-73
2021/06/24 02:02:41;;;;;;;6.87;4.87;;;;;;;17.12;74.44;100826.22;5102573;28;20209;-73
2021/06/24 02:05:08;;;;;;;6.67;5.00;;;;;;;17.09;74.49;100821.94;5102719;28;20573;-73
2021/06/24 02:07:39;;;;;;;5.93;5.33;;;;;;;17.13;74.12;100828.81;5103111;28;20293;-73
2021/06/24 02:10:07;;;;;;;7.70;4.90;;;;;;;17.13;74.38;100820.06;5102564;28;20212;-72
2021/06/24 02:12:33;;;;;;;5.63;4.77;;;;;;;17.07;74.47;100819.38;5102354;28;20278;-73
2021/06/24 02:15:00;;;;;;;5.93;4.97;;;;;;;17.06;74.52;100822.06;5103206;28;20701;-73
2021/06/24 02:17:27;;;;;;;5.87;5.23;;;;;;;17.05;74.63;100821.22;5102868;28;20321;-73
2021/06/24 02:19:54;;;;;;;7.80;5.40;;;;;;;17.07;75.28;100798.25;5102987;28;20488;-73
2021/06/24 02:22:20;;;;;;;6.00;5.10;;;;;;;16.97;74.67;100815.38;5102977;28;20310;-73
2021/06/24 02:24:47;;;;;;;5.13;4.63;;;;;;;17.00;75.25;100801.19;5102521;28;20203;-73
2021/06/24 02:27:13;;;;;;;6.27;5.23;;;;;;;17.06;74.70;100817.63;5102843;28;20269;-73
2021/06/24 02:29:39;;;;;;;7.83;5.23;;;;;;;17.06;74.48;100817.63;5102838;28;20258;-73
2021/06/24 02:32:06;;;;;;;6.40;5.17;;;;;;;17.09;74.37;100837.78;5102400;28;20713;-72
2021/06/24 02:34:36;;;;;;;6.40;5.80;;;;;;;17.05;74.25;100825.63;5102774;28;20525;-72
2021/06/24 02:37:02;;;;;;;6.37;5.60;;;;;;;17.02;74.54;100825.75;5102600;28;20222;-73
2021/06/24 02:39:28;;;;;;;5.33;4.83;;;;;;;17.00;74.95;100817.03;5103066;28;20646;-74
2021/06/24 02:41:55;;;;;;;6.13;4.93;;;;;;;17.00;75.03;100802.06;5102293;28;20229;-73
2021/06/24 02:44:21;;;;;;;6.80;5.17;;;;;;;16.95;75.66;100785.56;5102791;28;20238;-74
2021/06/24 02:46:48;;;;;;;5.50;5.00;;;;;;;16.96;75.75;100782.00;5102941;28;20224;-73
2021/06/24 02:49:14;;;;;;;5.73;4.90;;;;;;;17.02;75.32;100788.81;5102596;28;20293;-74
2021/06/24 02:51:42;;;;;;;6.00;5.50;;;;;;;16.96;75.34;100794.34;5102133;28;20205;-73
2021/06/24 02:54:08;;;;;;;5.60;5.10;;;;;;;16.99;75.38;100795.06;5109533;28;20208;-74
2021/06/24 02:56:40;;;;;;;6.83;5.40;;;;;;;16.94;75.60;100786.47;5114163;28;20225;-74
2021/06/24 02:59:07;;;;;;;6.17;5.40;;;;;;;16.96;75.98;100771.44;5107134;28;20237;-73
2021/06/24 03:01:33;;;;;;;6.53;5.07;;;;;;;16.98;75.77;100769.63;5106414;28;20320;-73
2021/06/24 03:04:00;;;;;;;5.40;4.90;;;;;;;16.91;76.17;100749.69;5105992;28;20441;-73
2021/06/24 03:06:26;;;;;;;5.73;5.17;;;;;;;16.84;76.31;100743.78;5106239;28;20237;-73
2021/06/24 03:08:54;;;;;;;8.77;6.10;;;;;;;16.84;76.60;100725.34;5106339;28;20214;-73
2021/06/24 03:11:20;;;;;;;7.67;5.80;;;;;;;16.83;76.47;100734.19;5106181;28;20453;-73
2021/06/24 03:13:49;;;;;;;7.03;5.93;;;;;;;16.83;76.72;100733.34;5105977;28;20267;-74
2021/06/24 03:16:16;;;;;;;6.07;5.47;;;;;;;16.89;76.17;100748.91;5106117;28;20262;-73
2021/06/24 03:18:45;;;;;;;5.77;5.27;;;;;;;16.89;75.87;100764.72;5105304;28;20635;-73
2021/06/24 03:21:11;;;;;;;10.37;6.30;;;;;;;16.86;75.76;100772.75;5105957;28;20225;-73
2021/06/24 03:23:38;;;;;;;8.57;6.13;;;;;;;16.89;75.41;100783.19;5105553;28;20220;-73
2021/06/24 03:26:05;;;;;;;6.17;5.43;;;;;;;16.85;75.24;100784.22;5105866;28;20226;-73
2021/06/24 03:28:32;;;;;;;6.80;5.60;;;;;;;16.80;75.58;100768.53;5105479;28;20218;-74
2021/06/24 03:30:58;;;;;;;6.33;5.67;;;;;;;16.82;75.37;100771.16;5105680;28;20564;-73
2021/06/24 03:33:25;;;;;;;6.60;5.63;;;;;;;16.82;75.37;100774.63;5105850;28;20205;-73
2021/06/24 03:35:51;;;;;;;6.67;5.50;;;;;;;16.86;75.68;100755.13;5105397;28;20281;-73
2021/06/24 03:38:18;;;;;;;6.07;5.43;;;;;;;16.87;75.76;100742.84;5105908;28;20205;-73
2021/06/24 03:40:45;;;;;;;6.67;5.70;;;;;;;16.91;75.47;100746.19;5105525;28;20779;-73
2021/06/24 03:43:12;;;;;;;6.80;6.10;;;;;;;16.88;75.87;100744.53;5105053;28;20230;-73
2021/06/24 03:45:40;;;;;;;7.00;6.27;;;;;;;16.92;75.91;100748.75;5105410;28;20225;-73
2021/06/24 03:48:08;;;;;;;7.80;6.40;;;;;;;16.85;75.47;100771.03;5105499;28;20201;-74
2021/06/24 03:50:35;;;;;;;5.97;5.47;;;;;;;16.91;76.10;100746.19;5105733;28;20213;-73
2021/06/24 03:53:01;;;;;;;6.10;5.50;;;;;;;16.88;75.34;100777.03;5105281;28;20204;-73
2021/06/24 03:55:36;;;;;;;8.40;5.73;;;;;;;16.91;75.27;100783.09;5105478;28;20233;-73
2021/06/24 03:58:03;;;;;;;6.43;5.60;;;;;;;16.86;75.24;100793.84;5105478;28;20208;-73
2021/06/24 04:00:31;;;;;;;7.03;5.93;;;;;;;16.83;75.27;100780.78;5104882;28;20208;-73
2021/06/24 04:02:57;;;;;;;6.13;5.57;;;;;;;16.81;75.35;100779.97;5104861;28;20272;-73
2021/06/24 04:05:24;;;;;;;7.67;5.73;;;;;;;16.77;75.76;100766.03;5104578;28;20224;-74
2021/06/24 04:07:50;;;;;;;6.60;5.87;;;;;;;16.75;76.08;100753.81;5105683;28;20213;-73
2021/06/24 04:10:17;;;;;;;6.83;6.13;;;;;;;16.75;76.27;100738.00;5105474;28;20209;-73
2021/06/24 04:12:43;;;;;;;6.97;5.63;;;;;;;16.81;76.37;100730.75;5105259;28;20236;-73
2021/06/24 04:15:10;;;;;;;6.37;5.77;;;;;;;16.80;76.17;100742.16;5105154;28;20217;-73
2021/06/24 04:17:38;;;;;;;8.20;6.73;;;;;;;16.82;75.64;100771.16;5105043;28;20221;-73
2021/06/24 04:20:07;;;;;;;6.67;5.83;;;;;;;16.79;75.77;100765.97;5105294;28;20205;-73
2021/06/24 04:22:33;;;;;;;12.60;6.70;;;;;;;16.72;75.89;100765.34;5109281;28;20227;-74
2021/06/24 04:25:00;;;;;;;7.87;6.50;;;;;;;16.73;75.73;100764.44;5114362;28;20655;-74
2021/06/24 04:27:26;;;;;;;6.87;5.90;;;;;;;16.71;76.13;100741.69;5113460;28;20237;-74
2021/06/24 04:29:52;;;;;;;7.40;6.20;;;;;;;16.75;76.06;100745.91;5108237;28;20357;-73
2021/06/24 04:32:19;;;;;;;9.17;6.30;;;;;;;16.78;76.05;100751.06;5104844;28;20222;-74
2021/06/24 04:34:46;;;;;;;6.23;5.63;;;;;;;16.78;76.03;100746.66;5104703;28;20210;-73
2021/06/24 04:37:13;;;;;;;6.80;5.97;;;;;;;16.84;75.43;100767.53;5104485;28;20227;-73
2021/06/24 04:39:39;;;;;;;8.40;6.30;;;;;;;16.77;75.76;100760.75;5104897;28;20197;-74
2021/06/24 04:42:06;;;;;;;7.17;6.57;;;;;;;16.80;75.86;100757.13;5104154;28;20224;-74
2021/06/24 04:44:32;;;;;;;7.73;6.47;;;;;;;16.80;76.36;100725.50;5104345;28;20266;-73
2021/06/24 04:46:59;;;;;;;8.87;6.20;;;;;;;16.82;76.24;100726.34;5104571;28;20776;-73
2021/06/24 04:49:25;;;;;;;7.53;6.20;;;;;;;16.85;76.12;100736.78;5104760;28;20278;-73
2021/06/24 04:51:53;;;;;;;8.53;5.63;;;;;;;16.78;75.88;100759.84;5104011;28;20213;-74
2021/06/24 04:54:19;;;;;;;6.43;5.73;;;;;;;16.63;75.94;100749.88;5104321;28;20739;-74
2021/06/24 04:56:46;;;;;;;8.53;6.27;;;;;;;16.65;76.52;100721.72;5103920;28;20229;-74
2021/06/24 04:59:12;;;;;;;6.53;5.90;;;;;;;16.75;76.65;100728.34;5104092;28;20213;-73
2021/06/24 05:01:39;;;;;;;7.17;6.10;;;;;;;16.76;76.55;100716.00;5103897;28;20635;-73
2021/06/24 05:04:05;;;;;;;8.23;6.07;;;;;;;16.64;76.78;100719.97;5103710;28;20208;-74
2021/06/24 05:06:31;;;;;;;7.43;6.63;;;;;;;16.64;76.57;100712.94;5103919;28;20641;-73
2021/06/24 05:09:00;;;;;;;9.53;5.90;;;;;;;16.67;76.28;100730.41;5104037;28;20204;-73
2021/06/24 05:11:26;;;;;;;7.07;6.43;;;;;;;16.76;75.83;100745.00;5103742;28;20694;-73
2021/06/24 05:13:53;;;;;;;9.60;6.23;;;;;;;16.76;76.22;100716.84;5103222;28;20213;-73
2021/06/24 05:16:19;;;;;;;6.40;5.80;;;;;;;16.79;76.58;100706.19;5103910;28;20223;-73
2021/06/24 05:18:46;;;;;;;7.00;5.93;;;;;;;16.85;76.47;100707.75;5103461;28;20912;-73
2021/06/24 05:21:12;;;;;;;7.10;6.23;;;;;;;16.81;76.21;100732.50;5103660;28;20658;-73
2021/06/24 05:23:39;;;;;;;6.57;5.93;;;;;;;16.75;76.59;100712.53;5103238;28;20209;-74
2021/06/24 05:26:07;;;;;;;7.43;6.53;;;;;;;16.80;76.36;100709.69;5103735;28;20614;-73
2021/06/24 05:28:33;;;;;;;9.87;6.33;;;;;;;16.79;76.48;100708.00;5103668;28;20209;-74
2021/06/24 05:30:59;;;;;;;9.77;6.43;;;;;;;16.85;76.58;100720.94;5103606;28;20529;-73
2021/06/24 05:33:26;;;;;;;9.63;6.17;;;;;;;16.80;76.25;100728.13;5103219;28;20229;-73
2021/06/24 05:35:52;;;;;;;6.77;6.10;;;;;;;16.54;77.58;100676.47;5103443;28;20231;-73
2021/06/24 05:38:19;;;;;;;7.47;6.20;;;;;;;16.58;77.87;100665.72;5103309;28;20474;-73
2021/06/24 05:40:47;;;;;;;8.57;6.17;;;;;;;16.72;77.37;100673.09;5103294;28;20269;-74
2021/06/24 05:43:15;;;;;;;7.20;6.53;;;;;;;16.84;76.95;100701.59;5103030;28;20232;-74
2021/06/24 05:45:42;;;;;;;7.70;6.30;;;;;;;16.95;76.74;100717.00;5103178;28;20336;-73
2021/06/24 05:48:08;;;;;;;6.43;5.90;;;;;;;16.99;76.09;100744.13;5103217;28;20424;-73
2021/06/24 05:50:36;;;;;;;7.40;6.17;;;;;;;17.07;76.59;100736.75;5103421;28;20217;-73
2021/06/24 05:53:02;;;;;;;6.63;5.93;;;;;;;17.16;75.46;100780.34;5102782;28;20202;-73
2021/06/24 05:58:09;;;;;;;7.20;6.30;;;;;;;17.17;75.79;100764.47;5101884;28;20204;-74
2021/06/24 06:00:37;;;;;;;6.87;6.23;;;;;;;17.20;76.30;100745.00;5103000;28;20214;-73
2021/06/24 06:03:04;;;;;;;6.60;5.77;;;;;;;17.21;75.78;100770.47;5102382;28;20714;-74
2021/06/24 06:05:32;;;;;;;7.07;6.37;;;;;;;17.23;75.64;100776.53;5103136;28;20234;-73
2021/06/24 06:07:59;;;;;;;8.90;6.20;;;;;;;17.31;75.81;100781.50;5103208;28;20245;-73
2021/06/24 06:10:25;;;;;;;8.40;6.20;;;;;;;17.31;75.08;100808.75;5102811;28;20218;-73
2021/06/24 06:12:52;;;;;;;7.97;6.00;;;;;;;17.36;75.04;100816.47;5102171;28;20868;-73
2021/06/24 06:15:18;;;;;;;6.77;6.17;;;;;;;17.35;75.09;100812.13;5102701;28;20653;-73
2021/06/24 06:17:46;;;;;;;7.37;6.57;;;;;;;17.36;75.36;100801.50;5102601;28;20448;-73
2021/06/24 06:20:13;;;;;;;7.43;6.27;;;;;;;17.37;75.68;100789.16;5102364;28;20206;-74
2021/06/24 06:22:40;;;;;;;7.07;6.37;;;;;;;17.35;75.58;100789.22;5102492;28;20224;-73
2021/06/24 06:25:08;;;;;;;7.03;6.20;;;;;;;17.37;75.29;100800.56;5101771;28;20217;-73
2021/06/24 06:27:34;;;;;;;7.40;6.83;;;;;;;17.39;75.60;100797.88;5102488;28;20266;-75
2021/06/24 06:30:00;;;;;;;6.80;6.17;;;;;;;17.39;75.92;100782.88;5107128;27;20204;-74
2021/06/24 06:32:27;;;;;;;8.13;6.23;;;;;;;17.43;75.70;100800.31;5107008;27;20254;-75
2021/06/24 06:34:54;;;;;;;7.33;6.50;;;;;;;17.47;75.36;100820.38;5107524;27;20466;-75
2021/06/24 06:37:21;;;;;;;8.60;7.60;;;;;;;17.44;75.15;100830.19;5107541;27;20761;-74
2021/06/24 06:39:47;;;;;;;9.07;6.77;;;;;;;17.54;75.41;100823.63;5108109;27;20680;-74
2021/06/24 06:42:14;;;;;;;6.93;6.33;;;;;;;17.62;74.74;100850.56;5107000;27;20641;-74
2021/06/24 06:44:40;;;;;;;7.43;6.57;;;;;;;17.61;74.45;100855.91;5107754;27;20209;-74
2021/06/24 06:47:06;;;;;;;10.17;6.73;;;;;;;17.67;74.27;100879.41;5107653;27;20295;-75
2021/06/24 06:49:33;;;;;;;7.97;6.93;;;;;;;17.64;74.06;100890.97;5107926;27;20209;-73
2021/06/24 06:52:00;;;;;;;7.70;7.07;;;;;;;17.64;74.32;100869.84;5107104;27;20683;-74
2021/06/24 06:54:27;;;;;;;8.70;7.60;;;;;;;17.62;74.11;100879.63;5107535;27;20471;-73
2021/06/24 06:56:53;;;;;;;11.13;7.10;;;;;;;17.64;74.23;100872.47;5107261;27;20229;-74
2021/06/24 06:59:19;;;;;;;7.00;6.43;;;;;;;17.69;74.10;100885.50;5107459;27;20217;-74
2021/06/24 07:01:46;;;;;;;7.47;6.77;;;;;;;17.73;74.06;100876.50;5107594;27;20234;-73
2021/06/24 07:04:12;;;;;;;8.93;6.90;;;;;;;17.77;74.13;100872.81;5107274;27;20698;-73
2021/06/24 07:06:38;;;;;;;7.83;7.03;;;;;;;17.81;73.83;100884.97;5107124;27;20826;-73
2021/06/24 07:09:06;;;;;;;13.43;7.80;;;;;;;17.77;74.46;100859.63;5107077;27;20205;-75
2021/06/24 07:11:33;;;;;;;7.60;6.90;;;;;;;17.82;73.56;100891.97;5107056;27;20238;-74
2021/06/24 07:13:59;;;;;;;9.27;7.50;;;;;;;17.84;74.36;100870.84;5107278;27;20210;-73
2021/06/24 07:16:25;;;;;;;9.93;7.03;;;;;;;17.85;73.82;100872.53;5107126;27;20233;-73
2021/06/24 07:18:52;;;;;;;7.87;7.10;;;;;;;17.82;74.70;100835.66;5104865;27;20221;-74
2021/06/24 07:21:18;;;;;;;7.20;6.50;;;;;;;17.88;74.11;100866.25;5106183;27;20680;-74
2021/06/24 07:23:45;;;;;;;12.77;8.60;;;;;;;17.90;73.85;100885.53;5106163;27;20287;-74
2021/06/24 07:26:13;;;;;;;7.97;7.20;;;;;;;17.93;74.15;100873.06;5106251;27;20225;-75
2021/06/24 07:28:39;;;;;;;9.20;8.27;;;;;;;17.93;74.30;100849.28;5106012;27;20449;-73
2021/06/24 07:31:06;;;;;;;10.53;7.63;;;;;;;17.99;74.03;100879.88;5107002;27;20210;-74
2021/06/24 07:33:34;;;;;;;8.60;7.90;;;;;;;17.92;73.96;100881.94;5106440;27;20251;-74
2021/06/24 07:36:00;;;;;;;7.77;7.13;;;;;;;17.84;75.10;100818.88;5106197;27;20222;-74
2021/06/24 07:38:27;;;;;;;9.17;7.00;;;;;;;17.94;74.15;100858.06;5106147;27;20263;-74
2021/06/24 07:40:53;;;;;;;8.47;7.67;;;;;;;17.95;73.85;100870.34;5105576;27;20210;-74
2021/06/24 07:43:21;;;;;;;9.47;7.50;;;;;;;18.01;74.46;100849.81;5105737;27;20278;-75
2021/06/24 07:45:47;;;;;;;7.63;6.90;;;;;;;18.13;73.97;100868.72;5107475;27;20230;-74
2021/06/24 07:48:14;;;;;;;7.40;6.60;;;;;;;18.15;73.68;100877.41;5106692;27;20205;-74
2021/06/24 07:50:40;;;;;;;8.13;7.43;;;;;;;18.16;74.67;100850.94;5105716;27;20210;-74
2021/06/24 07:53:07;;;;;;;8.83;8.00;;;;;;;18.23;74.30;100848.88;5105640;27;20205;-74
2021/06/24 07:55:34;;;;;;;8.60;7.77;;;;;;;18.26;73.52;100878.66;5106115;27;20232;-75
2021/06/24 07:58:01;;;;;;;9.03;8.23;;;;;;;18.24;73.96;100863.81;5105001;27;20215;-75
2021/06/24 08:00:29;;;;;;;10.10;7.53;;;;;;;18.24;74.14;100864.66;5106094;27;20630;-73
2021/06/24 08:02:55;;;;;;;9.97;8.03;;;;;;;18.27;73.62;100868.94;5105505;27;20426;-74
2021/06/24 08:05:22;;;;;;;8.80;7.90;;;;;;;18.30;73.94;100860.06;5105730;27;20324;-74
2021/06/24 08:07:49;;;;;;;9.10;7.73;;;;;;;18.33;74.10;100849.31;5105687;27;20207;-74
2021/06/24 08:10:16;;;;;;;8.60;7.83;;;;;;;18.42;73.44;100870.91;5105544;27;20204;-74
2021/06/24 08:12:43;;;;;;;8.53;7.70;;;;;;;18.45;73.01;100891.94;5104740;27;20202;-75
2021/06/24 08:15:11;;;;;;;8.00;7.20;;;;;;;18.53;72.92;100896.00;5104350;27;20208;-74
2021/06/24 08:17:39;;;;;;;7.77;6.83;;;;;;;18.62;72.87;100883.25;5105512;27;20311;-74
2021/06/24 08:20:09;;;;;;;10.37;7.97;;;;;;;18.71;72.82;100892.56;5105977;27;20206;-74
2021/06/24 08:22:35;;;;;;;8.00;7.30;;;;;;;18.86;72.12;100906.88;5104513;27;20711;-74
2021/06/24 08:25:02;;;;;;;7.57;6.90;;;;;;;18.97;71.64;100938.16;5102905;28;20217;-74
2021/06/24 08:27:28;;;;;;;7.90;7.10;;;;;;;19.01;71.23;100953.81;5104859;27;20681;-74
2021/06/24 08:29:56;;;;;;;10.67;7.33;;;;;;;19.09;71.01;100934.06;5104114;27;20210;-74
2021/06/24 08:32:23;;;;;;;8.17;7.40;;;;;;;19.10;70.92;100947.22;5104029;27;20288;-73
2021/06/24 08:34:51;;;;;;;7.70;7.00;;;;;;;19.11;70.24;100967.47;5105122;27;20252;-73
2021/06/24 08:37:17;;;;;;;7.83;7.00;;;;;;;19.04;71.49;100921.91;5105364;27;20210;-74
2021/06/24 08:39:44;;;;;;;8.60;7.73;;;;;;;19.07;70.86;100957.09;5103577;27;20208;-74
2021/06/24 08:42:11;;;;;;;10.30;7.13;;;;;;;18.78;71.30;100941.59;5104887;27;20238;-74
2021/06/24 08:44:39;;;;;;;9.43;7.10;;;;;;;18.73;72.00;100887.19;5105307;27;20207;-74
2021/06/24 08:47:08;;;;;;;8.93;7.50;;;;;;;18.88;72.33;100861.84;5104686;27;20225;-74
2021/06/24 08:49:37;;;;;;;8.40;7.57;;;;;;;18.96;71.61;100910.81;5104668;28;20205;-75
2021/06/24 08:52:06;;;;;;;8.17;7.33;;;;;;;19.07;71.13;100920.91;5104400;27;20251;-75
2021/06/24 08:54:32;;;;;;;9.07;8.23;;;;;;;19.17;70.91;100935.44;5104967;27;20217;-74
2021/06/24 08:56:58;;;;;;;8.30;7.50;;;;;;;19.25;70.74;100948.31;5105216;27;20234;-75
2021/06/24 08:59:25;;;;;;;8.53;7.83;;;;;;;19.38;70.29;100953.88;5104513;27;20209;-74
2021/06/24 09:01:53;;;;;;;8.13;7.37;;;;;;;19.45;69.47;100995.03;5104148;28;21146;-77
2021/06/24 09:04:21;;;;;;;8.37;7.67;;;;;;;19.51;69.54;100978.00;5104347;27;20495;-75
2021/06/24 09:06:48;;;;;;;9.43;8.40;;;;;;;19.59;69.57;100971.38;5104476;27;20231;-74
2021/06/24 09:09:26;;;;;;;8.63;7.07;;;;;;;19.72;69.00;100995.53;5107362;27;20224;-75
2021/06/24 09:12:02;;;;;;;8.80;8.07;;;;;;;19.85;69.11;101003.72;5107189;27;20261;-74
2021/06/24 09:14:38;;;;;;;7.70;7.10;;;;;;;19.91;68.08;101061.72;5107777;27;20210;-73
2021/06/24 09:17:04;;;;;;;7.50;6.70;;;;;;;19.96;67.98;101043.81;5106895;27;20618;-74
2021/06/24 09:19:31;;;;;;;8.50;5.70;;;;;;;20.08;68.00;101028.25;5105001;27;20221;-74
2021/06/24 09:22:00;;;;;;;7.10;6.40;;;;;;;20.17;66.93;101094.91;5104537;27;20531;-75
2021/06/24 09:24:31;;;;;;;6.43;5.93;;;;;;;20.22;66.60;101100.88;5104331;27;20236;-75
2021/06/24 09:27:01;;;;;;;6.53;5.93;;;;;;;20.24;66.14;101143.22;5104467;28;20227;-74
2021/06/24 09:29:28;;;;;;;6.87;6.33;;;;;;;20.27;65.96;101129.78;5103802;27;20206;-74
2021/06/24 09:32:03;;;;;;;6.63;6.13;;;;;;;20.36;66.62;101094.03;5104227;27;20211;-73
2021/06/24 09:34:29;;;;;;;5.40;5.00;;;;;;;20.51;65.95;101121.56;5104339;27;20255;-74
2021/06/24 09:36:59;;;;;;;5.27;4.87;;;;;;;20.58;64.06;101211.38;5104382;27;20279;-73
2021/06/24 09:39:39;;;;;;;6.70;4.57;;;;;;;20.65;63.72;101235.00;5104390;27;20210;-74
2021/06/24 09:42:08;;;;;;;6.43;5.23;;;;;;;20.72;62.81;101241.72;5103181;27;20687;-74
2021/06/24 09:44:36;;;;;;;5.23;4.80;;;;;;;20.72;62.46;101278.88;5104052;27;20259;-74
2021/06/24 09:47:16;;;;;;;5.30;4.80;;;;;;;20.73;61.80;101302.69;5104391;27;20790;-73
2021/06/24 09:49:42;;;;;;;4.77;4.47;;;;;;;20.71;61.95;101285.97;5103944;27;20222;-74
2021/06/24 09:52:10;;;;;;;4.97;4.00;;;;;;;20.73;62.42;101273.50;5103282;28;20204;-75
2021/06/24 09:54:41;;;;;;;4.23;3.93;;;;;;;20.57;62.87;101238.88;5104044;27;20203;-74
2021/06/24 09:57:08;;;;;;;5.67;5.17;;;;;;;20.51;61.42;101297.47;5108536;27;20233;-74
2021/06/24 09:59:40;;;;;;;3.50;3.17;;;;;;;20.50;63.54;101228.63;5109948;28;20208;-74
2021/06/24 10:02:09;;;;;;;4.13;3.83;;;;;;;20.60;62.33;101265.25;5109264;27;20213;-74
2021/06/24 10:04:38;;;;;;;6.00;4.50;;;;;;;20.77;62.05;101266.22;5104419;27;20279;-75
2021/06/24 10:07:10;;;;;;;5.10;4.50;;;;;;;20.89;61.76;101278.94;5103703;27;20222;-72
2021/06/24 10:09:39;;;;;;;3.73;3.53;;;;;;;21.01;60.08;101360.63;5103701;28;20614;-73
2021/06/24 10:12:07;;;;;;;4.33;3.93;;;;;;;21.09;60.69;101328.41;5104204;27;20625;-75
2021/06/24 10:14:34;;;;;;;5.17;3.93;;;;;;;21.21;60.33;101326.94;5103749;28;20209;-75
2021/06/24 10:17:02;;;;;;;8.50;4.10;;;;;;;21.38;59.47;101369.44;5102941;28;20264;-74
2021/06/24 10:19:30;;;;;;;3.93;3.63;;;;;;;21.56;59.48;101365.03;5103370;27;20214;-72
2021/06/24 10:22:00;;;;;;;4.43;3.90;;;;;;;21.72;58.39;101412.94;5102874;28;20260;-73
2021/06/24 10:24:33;;;;;;;4.80;4.40;;;;;;;21.80;57.99;101439.16;5103212;27;20235;-74
2021/06/24 10:27:06;;;;;;;4.77;4.37;;;;;;;21.95;57.88;101429.56;5103447;28;20660;-75
2021/06/24 10:29:41;;;;;;;4.60;4.20;;;;;;;22.17;57.40;101448.78;5102830;28;20221;-75
2021/06/24 10:32:22;;;;;;;5.57;4.97;;;;;;;22.33;56.16;101499.41;5102755;28;20203;-75
2021/06/24 10:34:50;;;;;;;4.93;4.53;;;;;;;22.45;56.80;101468.66;5103833;28;20214;-75
2021/06/24 10:37:21;;;;;;;4.43;4.03;;;;;;;22.52;55.81;101495.81;5102720;28;20689;-75
2021/06/24 10:39:48;;;;;;;5.83;4.00;;;;;;;22.53;56.38;101479.75;5103186;28;20226;-75
2021/06/24 10:42:16;;;;;;;5.40;4.30;;;;;;;22.59;56.19;101459.94;5102849;28;20302;-74
2021/06/24 10:44:57;;;;;;;4.77;4.37;;;;;;;22.78;55.19;101516.59;5103179;28;20487;-73
2021/06/24 10:47:39;;;;;;;4.87;4.43;;;;;;;22.95;54.98;101513.03;5102910;28;20210;-73
2021/06/24 10:50:36;;;;;;;4.40;4.00;;;;;;;23.04;54.76;101522.38;5103431;28;20269;-74
2021/06/24 10:53:36;;;;;;;4.30;3.90;;;;;;;23.09;53.37;101583.38;5102046;28;20665;-73
2021/06/24 10:56:22;;;;;;;5.43;3.90;;;;;;;23.04;54.01;101532.16;5103541;28;20322;-74
2021/06/24 10:58:50;;;;;;;4.77;4.10;;;;;;;22.95;54.76;101504.19;5103391;28;20202;-74
2021/06/24 11:01:18;;;;;;;4.30;3.90;;;;;;;22.87;54.17;101539.19;5102883;28;20253;-75
2021/06/24 11:03:46;;;;;;;3.57;3.27;;;;;;;22.82;56.41;101425.94;5102636;28;20226;-74
2021/06/24 11:06:14;;;;;;;4.17;3.80;;;;;;;22.85;55.07;101469.19;5102837;28;20763;-74
2021/06/24 11:08:42;;;;;;;4.60;4.27;;;;;;;22.86;53.83;101542.81;5102255;28;20611;-74
2021/06/24 11:11:10;;;;;;;4.30;4.00;;;;;;;22.86;53.27;101585.41;5103491;28;20199;-75
2021/06/24 11:13:46;;;;;;;3.93;3.53;;;;;;;22.95;55.08;101493.53;5102959;28;20203;-74
2021/06/24 11:16:35;;;;;;;4.20;3.60;;;;;;;23.11;55.14;101441.19;5104555;27;20226;-74
2021/06/24 11:19:06;;;;;;;4.90;4.50;;;;;;;23.11;52.76;101594.78;5106521;27;20236;-75
2021/06/24 11:21:52;;;;;;;4.20;3.80;;;;;;;23.19;52.91;101588.13;5107097;27;20229;-72
2021/06/24 11:24:23;;;;;;;7.17;3.77;;;;;;;23.12;55.13;101434.91;5106406;27;20654;-74
2021/06/24 11:26:51;;;;;;;5.40;4.93;;;;;;;23.19;53.01;101552.63;5105792;27;20583;-75
2021/06/24 11:29:26;;;;;;;4.47;4.07;;;;;;;23.19;54.19;101507.34;5107768;27;20241;-74
2021/06/24 11:31:57;;;;;;;4.27;3.87;;;;;;;23.28;54.33;101500.66;5106483;27;20211;-72